OIT weather

Oita Airport
Oita, Ōita Prefecture, Japan

Public forecast

Using degrees Celsius for public forecast. Weather courtesy of forecast.io.

Current aviation weather report (METAR) for Oita Airport

Retrieved 2019/11/17 11:00 UTC (35 minutes ago):

RJFO 171100Z 17012KT 9999 FEW030 SCT/// 19/15 Q1021

Aviation forecast (TAF) for Oita Airport

Retrieved 2019/11/17 06:30 UTC (5 hours ago):

TAF RJFO 170505Z 1706/1812 19010KT 9999 FEW030 BECMG 1803/1806 31012KT TEMPO 1803/1806 31015G25KT